Time;durP1;ratioP1;P1;durP2;ratioP2;P2;SDS_P1;SDS_P2;PMS_P1;PMS_P2;Temp;Humidity;BMP_temperature;BMP_pressure;BME280_temperature;BME280_humidity;BME280_pressure;Samples;Min_cycle;Max_cycle;Signal;HPM_P1;HPM_P2
2024/04/08 00:01:52;;;;;;;14.75;2.50;;;;;;;8.30;100.00;100736.66;5125009;28;20053;-71
2024/04/08 00:04:18;;;;;;;13.05;2.72;;;;;;;8.48;100.00;100763.97;5088451;28;20032;-72
2024/04/08 00:06:43;;;;;;;16.73;2.55;;;;;;;8.49;100.00;100762.94;5120081;28;20391;-72
2024/04/08 00:09:09;;;;;;;15.27;2.63;;;;;;;8.52;100.00;100773.28;5103562;28;20080;-72
2024/04/08 00:11:34;;;;;;;11.32;2.10;;;;;;;8.51;100.00;100754.69;5122621;28;20026;-72
2024/04/08 00:14:00;;;;;;;19.33;3.33;;;;;;;8.57;100.00;100764.69;5087749;28;20024;-72
2024/04/08 00:16:25;;;;;;;16.88;2.75;;;;;;;8.42;100.00;100746.75;5105279;28;20030;-72
2024/04/08 00:18:51;;;;;;;13.75;2.38;;;;;;;8.59;100.00;100776.88;5088085;28;20119;-73
2024/04/08 00:21:19;;;;;;;12.95;2.72;;;;;;;8.56;100.00;100768.38;5104275;28;20023;-72
2024/04/08 00:23:45;;;;;;;14.18;3.00;;;;;;;8.37;100.00;100742.94;5105266;28;20023;-73
2024/04/08 00:26:10;;;;;;;16.05;2.63;;;;;;;8.65;100.00;100784.19;5088812;28;20028;-72
2024/04/08 00:28:38;;;;;;;13.95;2.25;;;;;;;8.68;100.00;100789.19;5088114;28;20034;-72
2024/04/08 00:31:05;;;;;;;15.38;2.72;;;;;;;8.75;100.00;100805.38;5104381;28;20023;-72
2024/04/08 00:33:31;;;;;;;11.77;2.40;;;;;;;8.77;100.00;100787.22;5107290;28;20035;-72
2024/04/08 00:35:57;;;;;;;17.80;3.15;;;;;;;8.80;100.00;100783.31;5105365;28;20023;-73
2024/04/08 00:38:22;;;;;;;17.42;3.25;;;;;;;8.80;100.00;100781.47;5088453;28;20473;-72
2024/04/08 00:40:48;;;;;;;17.25;3.05;;;;;;;8.78;100.00;100772.78;5105807;28;20042;-73
2024/04/08 00:43:13;;;;;;;15.02;2.78;;;;;;;8.72;100.00;100765.50;5124154;28;20096;-71
2024/04/08 00:45:41;;;;;;;13.18;2.58;;;;;;;8.70;100.00;100768.34;5086948;28;20042;-72
2024/04/08 00:48:09;;;;;;;15.98;2.65;;;;;;;8.77;100.00;100781.84;5123808;28;20061;-73
2024/04/08 00:50:36;;;;;;;16.25;2.95;;;;;;;8.74;100.00;100779.56;5104078;28;20027;-72
2024/04/08 00:53:02;;;;;;;14.63;2.97;;;;;;;8.71;100.00;100771.91;5104552;28;20027;-73
2024/04/08 00:55:28;;;;;;;16.02;2.67;;;;;;;8.57;100.00;100753.94;5104467;28;20065;-72
2024/04/08 00:57:56;;;;;;;19.88;3.35;;;;;;;8.67;100.00;100776.78;5121504;28;20035;-72
2024/04/08 01:00:22;;;;;;;18.73;3.13;;;;;;;8.70;100.00;100771.03;5122875;28;20031;-73
2024/04/08 01:02:47;;;;;;;16.70;2.65;;;;;;;8.70;100.00;100775.56;5106104;28;20032;-72
2024/04/08 01:05:14;;;;;;;12.55;2.15;;;;;;;8.69;100.00;100776.59;5121012;28;20393;-72
2024/04/08 01:07:44;;;;;;;20.08;3.30;;;;;;;8.67;100.00;100774.09;5088076;28;20051;-72
2024/04/08 01:10:10;;;;;;;16.70;2.55;;;;;;;8.66;100.00;100768.94;5105701;28;20114;-72
2024/04/08 01:12:36;;;;;;;20.63;3.30;;;;;;;8.71;100.00;100777.25;5122454;28;20089;-72
2024/04/08 01:15:02;;;;;;;16.33;2.50;;;;;;;8.63;100.00;100762.06;5103631;28;20035;-73
2024/04/08 01:17:28;;;;;;;19.42;2.40;;;;;;;8.72;100.00;100765.50;5087073;28;20028;-72
2024/04/08 01:19:53;;;;;;;18.13;3.38;;;;;;;8.52;100.00;100751.84;5122979;28;20057;-72
2024/04/08 01:22:18;;;;;;;17.50;3.45;;;;;;;8.53;100.00;100734.72;5122632;28;20053;-72
2024/04/08 01:24:44;;;;;;;17.63;2.90;;;;;;;8.69;100.00;100763.19;5105080;28;20099;-73
2024/04/08 01:27:09;;;;;;;18.67;3.08;;;;;;;8.66;100.00;100760.88;5088369;28;20095;-72
2024/04/08 01:29:35;;;;;;;19.92;3.03;;;;;;;8.64;100.00;100758.41;5106128;28;20038;-72
2024/04/08 01:32:02;;;;;;;15.75;3.20;;;;;;;8.64;100.00;100781.69;5122750;28;20027;-72
2024/04/08 01:34:28;;;;;;;21.65;3.10;;;;;;;8.64;100.00;100787.03;5103964;28;20031;-72
2024/04/08 01:36:54;;;;;;;16.00;2.97;;;;;;;8.61;100.00;100782.06;5122922;28;20475;-72
2024/04/08 01:39:19;;;;;;;19.27;2.90;;;;;;;8.59;100.00;100776.88;5085960;28;20545;-72
2024/04/08 01:41:45;;;;;;;14.52;2.63;;;;;;;8.59;100.00;100778.75;5069473;28;20505;-72
2024/04/08 01:44:11;;;;;;;23.50;4.05;;;;;;;8.56;100.00;100774.56;5086337;28;20042;-72
2024/04/08 01:46:36;;;;;;;25.23;4.07;;;;;;;8.53;100.00;100766.06;5121239;28;20672;-72
2024/04/08 01:49:01;;;;;;;19.50;3.13;;;;;;;8.34;100.00;100728.03;5088013;28;20043;-72
2024/04/08 01:51:27;;;;;;;15.95;2.90;;;;;;;8.49;100.00;100764.78;5087898;28;20031;-72
2024/04/08 01:53:52;;;;;;;22.08;3.67;;;;;;;8.46;100.00;100766.81;5087784;28;20100;-72
2024/04/08 01:56:17;;;;;;;22.48;3.67;;;;;;;8.41;100.00;100754.97;5103960;28;20035;-72
2024/04/08 01:58:43;;;;;;;18.10;3.63;;;;;;;8.33;100.00;100758.56;5121777;28;20045;-72
2024/04/08 02:01:08;;;;;;;18.38;3.25;;;;;;;8.38;100.00;100771.47;5103177;28;20023;-72
2024/04/08 02:03:34;;;;;;;22.23;3.88;;;;;;;8.02;100.00;100718.56;5104126;28;20036;-71
2024/04/08 02:05:59;;;;;;;19.55;3.15;;;;;;;8.31;100.00;100776.69;5123503;28;20043;-72
2024/04/08 02:08:25;;;;;;;25.60;3.47;;;;;;;8.31;100.00;100783.88;5104603;28;20117;-72
2024/04/08 02:10:52;;;;;;;19.35;2.90;;;;;;;8.27;100.00;100775.38;5104860;28;20092;-72
2024/04/08 02:13:17;;;;;;;16.52;3.33;;;;;;;8.03;100.00;100740.81;5126234;28;20037;-73
2024/04/08 02:15:43;;;;;;;24.70;3.95;;;;;;;8.23;100.00;100784.81;5122451;28;20102;-72
2024/04/08 02:18:09;;;;;;;19.60;3.78;;;;;;;8.22;100.00;100777.81;5127530;28;20061;-72
2024/04/08 02:20:38;;;;;;;20.23;3.20;;;;;;;8.21;100.00;100792.19;5112899;28;20049;-72
2024/04/08 02:23:04;;;;;;;18.85;3.45;;;;;;;8.07;100.00;100771.59;5111495;28;20027;-72
2024/04/08 02:25:29;;;;;;;15.70;3.20;;;;;;;8.21;100.00;100800.25;5109097;28;20031;-72
2024/04/08 02:27:54;;;;;;;20.35;3.65;;;;;;;8.05;100.00;100763.75;5126769;28;20395;-72
2024/04/08 02:30:20;;;;;;;16.85;3.40;;;;;;;8.22;100.00;100783.16;5109088;28;20024;-72
2024/04/08 02:32:45;;;;;;;22.20;3.40;;;;;;;8.23;100.00;100774.94;5091521;28;20028;-72
2024/04/08 02:35:11;;;;;;;21.33;3.63;;;;;;;8.08;100.00;100749.13;5108336;28;20375;-72
2024/04/08 02:37:37;;;;;;;22.23;3.90;;;;;;;8.22;100.00;100770.59;5125786;28;20020;-72
2024/04/08 02:40:04;;;;;;;21.00;3.88;;;;;;;8.23;100.00;100763.38;5109735;28;20026;-72
2024/04/08 02:42:30;;;;;;;20.08;3.30;;;;;;;7.98;100.00;100731.50;5108676;28;20028;-73
2024/04/08 02:44:56;;;;;;;18.23;3.33;;;;;;;8.21;100.00;100768.94;5107889;28;20126;-72
2024/04/08 02:47:22;;;;;;;20.13;3.60;;;;;;;8.20;100.00;100767.25;5107829;28;20051;-72
2024/04/08 02:49:47;;;;;;;20.05;3.63;;;;;;;8.21;100.00;100768.06;5109935;28;20028;-72
2024/04/08 02:52:13;;;;;;;17.95;3.90;;;;;;;8.23;100.00;100771.41;5093636;28;20039;-72
2024/04/08 02:54:39;;;;;;;16.85;3.00;;;;;;;8.18;100.00;100766.63;5107754;28;20560;-72
2024/04/08 02:57:04;;;;;;;19.85;3.83;;;;;;;8.22;100.00;100767.09;5109166;28;20031;-72
2024/04/08 02:59:29;;;;;;;19.80;3.60;;;;;;;8.23;100.00;100760.69;5099495;28;20054;-71
2024/04/08 03:01:55;;;;;;;23.23;3.60;;;;;;;8.22;100.00;100756.34;5127779;28;20111;-72
2024/04/08 03:04:20;;;;;;;16.98;3.08;;;;;;;8.22;100.00;100746.47;5109321;28;20024;-72
2024/04/08 03:06:46;;;;;;;15.25;2.80;;;;;;;8.22;100.00;100745.63;5126346;28;20087;-73
2024/04/08 03:09:11;;;;;;;17.05;3.00;;;;;;;8.20;100.00;100750.34;5090697;28;20028;-72
2024/04/08 03:11:36;;;;;;;17.48;3.20;;;;;;;8.08;100.00;100733.91;5126683;28;20024;-72
2024/04/08 03:14:02;;;;;;;15.82;3.30;;;;;;;7.97;100.00;100711.06;5107847;28;20023;-72
2024/04/08 03:16:27;;;;;;;15.77;3.25;;;;;;;8.14;100.00;100743.84;5074013;28;20023;-72
2024/04/08 03:18:53;;;;;;;18.55;3.05;;;;;;;8.13;100.00;100734.16;5092175;28;20030;-72
2024/04/08 03:21:18;;;;;;;19.88;3.58;;;;;;;8.13;100.00;100736.03;5108443;28;20434;-72
2024/04/08 03:23:44;;;;;;;22.23;4.38;;;;;;;8.13;100.00;100731.50;5108899;28;20015;-72
2024/04/08 03:26:12;;;;;;;18.05;3.20;;;;;;;8.14;100.00;100743.03;5126055;28;20039;-72
2024/04/08 03:28:38;;;;;;;20.70;2.85;;;;;;;8.10;100.00;100731.84;5074968;28;20024;-72
2024/04/08 03:31:07;;;;;;;19.63;3.05;;;;;;;8.14;100.00;100735.00;5107539;28;20091;-72
2024/04/08 03:33:34;;;;;;;12.73;2.80;;;;;;;8.15;100.00;100737.50;5093304;28;20030;-72
2024/04/08 03:36:00;;;;;;;20.38;3.20;;;;;;;8.03;100.00;100720.22;5125584;28;20044;-72
2024/04/08 03:38:26;;;;;;;16.35;2.70;;;;;;;8.07;100.00;100731.41;5126422;28;20027;-71
2024/04/08 03:41:00;;;;;;;18.27;2.90;;;;;;;8.13;100.00;100742.22;5107220;28;20024;-72
2024/04/08 03:43:26;;;;;;;20.95;2.85;;;;;;;7.97;100.00;100703.00;5109162;28;20040;-72
2024/04/08 03:45:51;;;;;;;19.30;3.30;;;;;;;8.00;100.00;100726.75;5109186;28;20058;-72
2024/04/08 03:48:16;;;;;;;16.25;3.40;;;;;;;8.13;100.00;100741.38;5127103;28;20027;-72
2024/04/08 03:50:42;;;;;;;13.43;2.70;;;;;;;8.08;100.00;100735.72;5125916;28;20047;-72
2024/04/08 03:53:07;;;;;;;19.00;3.00;;;;;;;8.10;100.00;100747.09;5106272;28;20168;-72
2024/04/08 03:55:33;;;;;;;26.42;3.10;;;;;;;7.90;100.00;100702.09;5107727;28;20020;-72
2024/04/08 03:57:58;;;;;;;19.63;3.67;;;;;;;8.16;100.00;100741.00;5106619;28;20024;-72
2024/04/08 04:00:25;;;;;;;17.70;3.60;;;;;;;8.10;100.00;100722.97;5090021;28;20035;-72
2024/04/08 04:02:53;;;;;;;23.55;3.22;;;;;;;7.93;100.00;100692.88;5126821;28;20057;-72
2024/04/08 04:05:19;;;;;;;18.17;2.90;;;;;;;8.24;100.00;100740.91;5119690;28;20028;-72
2024/04/08 04:07:45;;;;;;;13.93;2.70;;;;;;;8.31;100.00;100738.31;5102226;28;20074;-71
2024/04/08 04:10:10;;;;;;;13.30;2.67;;;;;;;8.31;100.00;100725.75;5102163;28;20116;-71
2024/04/08 04:12:38;;;;;;;15.40;3.08;;;;;;;8.38;100.00;100726.72;5103095;28;20031;-72
2024/04/08 04:15:09;;;;;;;15.13;2.42;;;;;;;8.49;100.00;100733.44;5124501;28;20019;-75
2024/04/08 04:17:34;;;;;;;17.00;3.08;;;;;;;8.53;100.00;100739.25;5089621;28;20048;-73
2024/04/08 04:20:03;;;;;;;20.08;3.13;;;;;;;8.30;100.00;100702.63;5101799;28;20050;-74
2024/04/08 04:22:29;;;;;;;11.10;2.58;;;;;;;8.57;100.00;100722.59;5102693;28;20030;-73
2024/04/08 04:24:54;;;;;;;15.88;2.35;;;;;;;8.61;100.00;100733.78;5121803;28;20103;-74
2024/04/08 04:27:20;;;;;;;12.68;2.20;;;;;;;8.14;100.00;100657.28;5085790;28;20028;-73
2024/04/08 04:29:45;;;;;;;13.35;2.25;;;;;;;8.69;100.00;100739.03;5102820;28;20402;-71
2024/04/08 04:32:11;;;;;;;21.05;3.05;;;;;;;8.59;100.00;100703.66;5102519;28;20031;-72
2024/04/08 04:34:36;;;;;;;16.80;2.85;;;;;;;8.81;100.00;100736.72;5103090;28;20489;-71
2024/04/08 04:37:01;;;;;;;19.98;3.05;;;;;;;8.88;100.00;100729.56;5100285;28;20459;-73
2024/04/08 04:39:27;;;;;;;16.88;3.58;;;;;;;8.88;100.00;100725.03;5083019;28;20024;-71
2024/04/08 04:41:53;;;;;;;12.48;2.28;;;;;;;8.99;100.00;100725.53;5100519;28;20089;-71
2024/04/08 04:44:20;;;;;;;10.63;2.15;;;;;;;9.12;100.00;100723.00;5116615;28;20028;-71
2024/04/08 04:46:45;;;;;;;9.65;2.10;;;;;;;9.16;100.00;100711.66;5099139;28;20043;-71
2024/04/08 04:49:11;;;;;;;14.73;2.40;;;;;;;9.40;100.00;100717.66;5116538;28;20028;-72
2024/04/08 04:51:36;;;;;;;16.60;2.25;;;;;;;9.65;100.00;100726.16;5099691;28;20076;-72
2024/04/08 04:54:02;;;;;;;15.15;2.72;;;;;;;9.62;100.00;100719.31;5116927;28;20039;-72
2024/04/08 04:56:27;;;;;;;15.27;2.67;;;;;;;9.55;100.00;100710.38;5116304;28;20406;-72
2024/04/08 04:58:52;;;;;;;12.18;2.33;;;;;;;9.77;100.00;100707.66;5097490;28;20091;-72
2024/04/08 05:01:18;;;;;;;15.80;2.53;;;;;;;10.14;100.00;100706.41;5082364;28;20114;-72
2024/04/08 05:03:43;;;;;;;13.23;2.60;;;;;;;10.49;100.00;100719.84;5081404;28;20031;-71
2024/04/08 05:06:09;;;;;;;17.98;2.53;;;;;;;10.61;100.00;100712.03;5116098;28;20036;-72
2024/04/08 05:08:34;;;;;;;13.73;2.15;;;;;;;10.94;100.00;100721.03;5116154;28;20063;-71
2024/04/08 05:11:00;;;;;;;13.95;2.40;;;;;;;11.13;100.00;100708.66;5115953;28;20063;-71
2024/04/08 05:13:25;;;;;;;14.82;3.00;;;;;;;11.37;100.00;100715.31;5080325;28;20510;-70
2024/04/08 05:15:59;;;;;;;16.15;2.47;;;;;;;11.56;100.00;100708.25;5115811;28;20023;-71
2024/04/08 05:18:25;;;;;;;11.98;2.17;;;;;;;11.83;100.00;100709.06;5112036;28;20031;-71
2024/04/08 05:20:51;;;;;;;11.10;2.88;;;;;;;12.09;100.00;100723.56;5078576;28;20077;-71
2024/04/08 05:23:17;;;;;;;10.77;2.15;;;;;;;11.84;100.00;100699.09;5121357;28;20073;-71
2024/04/08 05:25:42;;;;;;;12.70;2.45;;;;;;;11.76;100.00;100725.25;5115023;28;20140;-71
2024/04/08 05:28:08;;;;;;;11.15;2.53;;;;;;;11.31;100.00;100683.78;5114222;28;20540;-72
2024/04/08 05:30:33;;;;;;;15.65;2.50;;;;;;;11.97;100.00;100732.28;5094423;28;20078;-72
2024/04/08 05:32:59;;;;;;;14.70;2.70;;;;;;;12.16;100.00;100709.03;5078009;28;20030;-71
2024/04/08 05:35:25;;;;;;;14.27;2.78;;;;;;;12.50;100.00;100728.63;5097164;28;20111;-71
2024/04/08 05:37:50;;;;;;;16.10;2.65;;;;;;;11.69;100.00;100729.00;5099587;28;20027;-71
2024/04/08 05:40:16;;;;;;;12.32;2.45;;;;;;;11.00;100.00;100732.88;5117424;28;20092;-72
2024/04/08 05:42:46;;;;;;;14.63;2.50;;;;;;;10.63;100.00;100718.88;5100988;28;20103;-71
2024/04/08 05:45:11;;;;;;;15.38;2.45;;;;;;;10.69;100.00;100747.66;5100918;28;20031;-71
2024/04/08 05:47:37;;;;;;;15.63;2.58;;;;;;;10.68;100.00;100748.69;5118899;28;20057;-71
2024/04/08 05:50:04;;;;;;;11.45;2.35;;;;;;;10.64;100.00;100723.22;5083001;28;20027;-72
2024/04/08 05:52:31;;;;;;;13.07;2.92;;;;;;;10.82;100.00;100746.88;5083085;28;20039;-71
2024/04/08 05:54:56;;;;;;;12.77;2.35;;;;;;;10.77;100.00;100742.09;5108698;28;20039;-71
2024/04/08 05:57:26;;;;;;;13.23;2.30;;;;;;;10.86;100.00;100752.69;5062771;28;20024;-71
2024/04/08 05:59:51;;;;;;;14.45;2.70;;;;;;;10.93;100.00;100756.25;5099692;28;20032;-72
2024/04/08 06:02:17;;;;;;;17.50;2.35;;;;;;;11.04;100.00;100755.66;5046635;28;20556;-71
2024/04/08 06:04:43;;;;;;;10.95;2.15;;;;;;;11.18;100.00;100760.03;5079142;28;20032;-72
2024/04/08 06:07:08;;;;;;;13.70;2.47;;;;;;;11.28;100.00;100756.94;5061626;28;20479;-72
2024/04/08 06:09:35;;;;;;;12.90;2.17;;;;;;;11.25;100.00;100750.09;5078758;28;20031;-72
2024/04/08 06:12:00;;;;;;;13.90;2.25;;;;;;;11.20;100.00;100752.56;5097101;28;20046;-72
2024/04/08 06:14:26;;;;;;;13.38;2.03;;;;;;;11.16;100.00;100758.56;5079840;28;20032;-72
2024/04/08 06:16:51;;;;;;;10.88;2.45;;;;;;;11.13;100.00;100761.69;5085645;28;20027;-72
2024/04/08 06:19:17;;;;;;;11.45;2.42;;;;;;;11.19;100.00;100759.00;5079416;28;20035;-72
2024/04/08 06:21:42;;;;;;;13.65;2.50;;;;;;;11.16;100.00;100734.31;5078632;28;20024;-72
2024/04/08 06:24:08;;;;;;;13.93;2.60;;;;;;;11.42;100.00;100760.47;5062861;28;20120;-72
2024/04/08 06:26:34;;;;;;;9.07;1.92;;;;;;;11.48;100.00;100749.69;5063216;28;20398;-71
2024/04/08 06:28:59;;;;;;;11.93;2.42;;;;;;;11.48;100.00;100755.09;5105826;28;20023;-72
2024/04/08 06:31:25;;;;;;;13.82;2.92;;;;;;;11.61;100.00;100756.13;5082536;28;20056;-71
2024/04/08 06:33:50;;;;;;;13.30;2.28;;;;;;;11.72;100.00;100758.19;5098809;28;20084;-71
2024/04/08 06:36:15;;;;;;;14.95;2.40;;;;;;;11.82;100.00;100761.34;5082753;28;20043;-72
2024/04/08 06:38:41;;;;;;;11.38;2.15;;;;;;;11.95;100.00;100766.75;5100020;28;20020;-71
2024/04/08 06:41:06;;;;;;;10.05;2.47;;;;;;;11.96;100.00;100752.22;5099166;28;20036;-71
2024/04/08 06:43:32;;;;;;;14.13;2.42;;;;;;;12.13;100.00;100766.09;5065602;28;20027;-72
2024/04/08 06:45:58;;;;;;;13.98;3.20;;;;;;;11.95;100.00;100742.47;5082373;28;20036;-71
2024/04/08 06:48:23;;;;;;;12.13;2.70;;;;;;;12.01;100.00;100756.97;5117988;28;20070;-71
2024/04/08 06:50:50;;;;;;;12.23;2.67;;;;;;;12.10;100.00;100771.06;5065534;28;20478;-71
2024/04/08 06:53:17;;;;;;;11.88;2.63;;;;;;;11.95;100.00;100720.06;5099429;28;20019;-70
2024/04/08 06:55:42;;;;;;;10.85;2.70;;;;;;;12.33;100.00;100773.31;5096683;28;20419;-72
2024/04/08 06:58:09;;;;;;;11.98;2.55;;;;;;;12.38;100.00;100778.88;5095686;28;20032;-72
2024/04/08 07:00:35;;;;;;;13.35;3.35;;;;;;;12.40;100.00;100784.91;5114629;28;20027;-72
2024/04/08 07:03:01;;;;;;;13.77;2.90;;;;;;;12.44;100.00;100781.56;5097556;28;20157;-71
2024/04/08 07:05:26;;;;;;;12.70;2.88;;;;;;;12.55;100.00;100782.81;5097535;28;20033;-72
2024/04/08 07:07:52;;;;;;;14.35;3.45;;;;;;;12.57;100.00;100790.69;5116528;28;20101;-71
2024/04/08 07:10:18;;;;;;;13.43;3.10;;;;;;;12.64;100.00;100791.47;5117626;28;20028;-72
2024/04/08 07:12:43;;;;;;;11.68;3.75;;;;;;;12.54;100.00;100770.34;5097801;28;20543;-72
2024/04/08 07:15:09;;;;;;;15.38;3.50;;;;;;;12.59;100.00;100794.00;5081091;28;20057;-72
2024/04/08 07:17:35;;;;;;;13.18;3.55;;;;;;;12.59;100.00;100808.31;5115911;28;20019;-72
2024/04/08 07:20:00;;;;;;;14.35;3.45;;;;;;;12.61;100.00;100798.13;5081249;28;20046;-72
2024/04/08 07:22:26;;;;;;;14.32;3.67;;;;;;;12.54;100.00;100797.31;5080550;28;20478;-72
2024/04/08 07:24:51;;;;;;;12.90;3.47;;;;;;;12.67;100.00;100791.88;5081165;28;20028;-72
2024/04/08 07:27:17;;;;;;;11.70;3.38;;;;;;;12.69;100.00;100799.78;5081316;28;20031;-72
2024/04/08 07:29:42;;;;;;;8.48;3.15;;;;;;;12.63;100.00;100785.25;5098272;28;20112;-72
2024/04/08 07:32:08;;;;;;;13.57;4.05;;;;;;;12.69;100.00;100795.22;5080316;28;20035;-72
2024/04/08 07:34:34;;;;;;;13.07;3.92;;;;;;;12.52;100.00;100772.44;5081298;28;20026;-72
2024/04/08 07:36:59;;;;;;;15.00;3.75;;;;;;;12.54;100.00;100802.72;5098610;28;20028;-72
2024/04/08 07:39:24;;;;;;;12.65;3.72;;;;;;;12.57;100.00;100801.47;5080061;28;20062;-72
2024/04/08 07:41:51;;;;;;;9.63;3.38;;;;;;;12.68;100.00;100795.41;5096639;28;20089;-72
2024/04/08 07:44:16;;;;;;;11.05;3.55;;;;;;;12.81;100.00;100792.66;5096546;28;20484;-72
2024/04/08 07:46:42;;;;;;;15.20;4.10;;;;;;;12.66;100.00;100786.72;5063874;28;20107;-71
2024/04/08 07:49:07;;;;;;;12.40;3.75;;;;;;;12.59;100.00;100767.00;5096774;28;20042;-72
2024/04/08 07:51:33;;;;;;;12.63;3.88;;;;;;;12.82;100.00;100809.72;5079943;28;20031;-72
2024/04/08 07:53:59;;;;;;;14.25;3.67;;;;;;;12.87;100.00;100809.88;5079120;28;20080;-72
2024/04/08 07:56:24;;;;;;;14.18;3.58;;;;;;;12.91;100.00;100803.84;5097422;28;20027;-72
2024/04/08 07:58:51;;;;;;;13.27;3.90;;;;;;;12.94;100.00;100806.09;5080378;28;20035;-72
2024/04/08 08:01:17;;;;;;;12.73;3.38;;;;;;;13.00;100.00;100812.53;5115100;28;20084;-72
2024/04/08 08:03:42;;;;;;;11.32;3.15;;;;;;;12.84;100.00;100794.94;5096647;28;20466;-72
2024/04/08 08:06:07;;;;;;;14.40;3.78;;;;;;;12.85;100.00;100802.00;5096625;28;20055;-72
2024/04/08 08:08:33;;;;;;;13.50;3.38;;;;;;;12.96;100.00;100821.28;5114597;28;20101;-72
2024/04/08 08:11:05;;;;;;;13.10;3.42;;;;;;;12.98;100.00;100819.19;5109223;28;20028;-73
2024/04/08 08:13:32;;;;;;;10.55;3.30;;;;;;;12.99;100.00;100818.97;5093277;28;20035;-73
2024/04/08 08:15:58;;;;;;;13.57;2.95;;;;;;;12.80;100.00;100785.59;5093265;28;20429;-72
2024/04/08 08:18:24;;;;;;;13.52;3.53;;;;;;;12.96;100.00;100822.09;5074829;28;20031;-71
2024/04/08 08:20:54;;;;;;;16.02;3.58;;;;;;;13.06;100.00;100821.66;5075246;28;20116;-72
2024/04/08 08:23:20;;;;;;;13.93;3.20;;;;;;;13.15;100.00;100823.06;5093586;28;20434;-72
2024/04/08 08:25:47;;;;;;;10.32;3.05;;;;;;;13.29;100.00;100834.66;5075736;28;20024;-72
2024/04/08 08:28:13;;;;;;;13.95;3.13;;;;;;;13.35;100.00;100837.31;5075280;28;20039;-72
2024/04/08 08:30:40;;;;;;;10.30;3.10;;;;;;;13.36;100.00;100838.16;5093899;28;20386;-72
2024/04/08 08:33:05;;;;;;;11.93;3.40;;;;;;;13.34;100.00;100840.22;5075852;28;20024;-72
2024/04/08 08:35:31;;;;;;;10.02;2.40;;;;;;;13.36;100.00;100816.53;5094475;28;20028;-72
2024/04/08 08:37:57;;;;;;;15.88;3.42;;;;;;;13.60;100.00;100839.25;5076354;28;20088;-72
2024/04/08 08:40:23;;;;;;;10.68;3.35;;;;;;;13.72;100.00;100831.28;5059844;28;20027;-72
2024/04/08 08:42:51;;;;;;;11.38;2.60;;;;;;;13.68;100.00;100847.09;5094516;28;20481;-72
2024/04/08 08:45:17;;;;;;;12.50;3.42;;;;;;;13.79;100.00;100850.97;5093693;28;20073;-72
2024/04/08 08:47:43;;;;;;;12.05;3.20;;;;;;;13.67;100.00;100817.56;5092563;28;20032;-72
2024/04/08 08:50:10;;;;;;;14.63;3.13;;;;;;;13.79;100.00;100851.81;5093523;28;20170;-72
2024/04/08 08:52:36;;;;;;;13.38;2.55;;;;;;;13.71;100.00;100826.88;5075524;28;20119;-72
2024/04/08 08:55:03;;;;;;;11.43;3.08;;;;;;;13.75;100.00;100830.84;5076427;28;20028;-72
2024/04/08 08:57:30;;;;;;;12.52;2.75;;;;;;;13.12;100.00;100734.34;5075583;28;20111;-71
2024/04/08 08:59:57;;;;;;;11.43;3.17;;;;;;;13.86;100.00;100833.66;5093496;28;20031;-72
2024/04/08 09:02:25;;;;;;;13.50;3.10;;;;;;;13.85;100.00;100842.00;5058736;28;20031;-72
2024/04/08 09:04:51;;;;;;;13.70;3.20;;;;;;;13.69;100.00;100815.47;5093306;28;20113;-72
2024/04/08 09:07:17;;;;;;;14.00;3.50;;;;;;;13.72;100.00;100826.69;5074982;28;20127;-72
2024/04/08 09:09:53;;;;;;;15.98;3.30;;;;;;;13.78;100.00;100839.34;5076488;28;20063;-72
2024/04/08 09:12:19;;;;;;;12.52;2.85;;;;;;;13.87;100.00;100858.81;5094359;28;20024;-72
2024/04/08 09:14:44;;;;;;;16.38;3.00;;;;;;;13.51;100.00;100825.19;5108147;28;20062;-72
2024/04/08 09:17:10;;;;;;;11.30;2.92;;;;;;;13.67;100.00;100845.44;5078627;28;20027;-72
2024/04/08 09:19:36;;;;;;;12.18;3.17;;;;;;;13.68;100.00;100863.34;5115018;28;20038;-72
2024/04/08 09:22:03;;;;;;;10.93;2.60;;;;;;;13.69;100.00;100864.16;5101033;28;20057;-71
2024/04/08 09:24:30;;;;;;;14.20;2.97;;;;;;;13.74;100.00;100875.13;5069872;28;20066;-73
2024/04/08 09:26:56;;;;;;;13.88;2.72;;;;;;;13.84;100.00;100880.88;5101970;28;20062;-72
2024/04/08 09:29:21;;;;;;;15.25;3.05;;;;;;;13.75;100.00;100861.41;5118382;28;20028;-72
2024/04/08 09:31:46;;;;;;;13.55;3.08;;;;;;;14.02;100.00;100878.25;5118590;28;20527;-72
2024/04/08 09:34:12;;;;;;;13.35;3.20;;;;;;;13.96;100.00;100848.56;5082797;28;20039;-73
2024/04/08 09:36:40;;;;;;;14.55;2.70;;;;;;;14.18;100.00;100873.38;5116709;28;20023;-72
2024/04/08 09:39:08;;;;;;;12.93;3.00;;;;;;;14.26;100.00;100883.91;5117157;28;20122;-73
2024/04/08 09:41:36;;;;;;;13.95;2.65;;;;;;;14.25;100.00;100883.06;5117924;28;20435;-71
2024/04/08 09:44:08;;;;;;;12.77;3.25;;;;;;;14.45;100.00;100899.13;5118375;28;20027;-72
2024/04/08 09:46:34;;;;;;;13.55;2.80;;;;;;;14.46;100.00;100900.78;5099172;28;20482;-72
2024/04/08 09:49:04;;;;;;;14.45;2.95;;;;;;;14.55;100.00;100914.91;5099492;28;20516;-71
2024/04/08 09:51:30;;;;;;;16.73;3.15;;;;;;;14.51;100.00;100883.94;5097346;28;20047;-72
2024/04/08 09:53:56;;;;;;;15.20;3.08;;;;;;;14.55;100.00;100902.19;5099834;28;20481;-73
2024/04/08 09:56:22;;;;;;;14.75;2.92;;;;;;;14.54;100.00;100905.97;5083878;28;20065;-72
2024/04/08 09:58:56;;;;;;;19.80;3.03;;;;;;;14.42;100.00;100868.97;5101842;28;20027;-72
2024/04/08 10:01:22;;;;;;;14.95;3.10;;;;;;;14.66;100.00;100913.34;5098189;28;20030;-72
2024/04/08 10:03:52;;;;;;;16.05;3.10;;;;;;;14.65;100.00;100917.13;5098562;28;20095;-72
2024/04/08 10:06:19;;;;;;;10.68;2.85;;;;;;;14.50;100.00;100907.47;5083030;28;20099;-73
2024/04/08 10:08:47;;;;;;;15.70;3.08;;;;;;;14.31;100.00;100916.56;5076666;28;20040;-73
2024/04/08 10:11:13;;;;;;;12.25;2.65;;;;;;;14.35;100.00;100917.75;5043708;28;20047;-73
2024/04/08 10:13:49;;;;;;;15.68;2.85;;;;;;;14.36;100.00;100914.00;5076577;28;20031;-72
2024/04/08 10:16:15;;;;;;;15.50;3.13;;;;;;;14.44;100.00;100918.34;5075947;28;20112;-72
2024/04/08 10:18:54;;;;;;;16.38;3.40;;;;;;;14.44;100.00;100921.03;5076641;28;20016;-73
2024/04/08 10:21:20;;;;;;;16.15;3.20;;;;;;;14.51;100.00;100933.50;5076219;28;20097;-73
2024/04/08 10:23:46;;;;;;;15.75;3.45;;;;;;;14.53;100.00;100925.13;5076605;28;20430;-72
2024/04/08 10:26:13;;;;;;;18.88;3.72;;;;;;;14.66;100.00;100929.59;5058362;28;20029;-73
2024/04/08 10:28:42;;;;;;;15.57;3.08;;;;;;;14.52;100.00;100913.47;5076133;28;20501;-72
2024/04/08 10:31:09;;;;;;;15.38;3.30;;;;;;;14.53;100.00;100925.94;5075093;28;20055;-72
2024/04/08 10:33:35;;;;;;;16.35;2.95;;;;;;;14.44;100.00;100931.88;5073410;28;20094;-72
2024/04/08 10:36:01;;;;;;;15.48;3.35;;;;;;;14.33;100.00;100919.84;5076277;28;20028;-72
2024/04/08 10:38:27;;;;;;;16.02;2.78;;;;;;;14.37;100.00;100926.50;5074092;28;20090;-72
2024/04/08 10:40:54;;;;;;;15.65;3.20;;;;;;;14.40;100.00;100928.75;5073757;28;20025;-72
2024/04/08 10:43:20;;;;;;;14.65;3.15;;;;;;;14.57;100.00;100927.19;5075358;28;20033;-72
2024/04/08 10:45:47;;;;;;;19.40;3.08;;;;;;;14.72;100.00;100920.59;5075110;28;20487;-72
2024/04/08 10:48:12;;;;;;;12.10;2.85;;;;;;;14.63;100.00;100921.91;5057388;28;20024;-73
2024/04/08 10:50:38;;;;;;;11.68;2.50;;;;;;;14.54;100.00;100915.97;5073561;28;20483;-72
2024/04/08 10:53:04;;;;;;;15.57;3.00;;;;;;;14.21;100.00;100872.94;5057312;28;20028;-72
2024/04/08 10:55:30;;;;;;;18.42;3.25;;;;;;;14.48;100.00;100906.81;5073578;28;20024;-72
2024/04/08 10:57:55;;;;;;;13.75;2.88;;;;;;;14.65;100.00;100922.53;5073691;28;20108;-72
2024/04/08 11:00:21;;;;;;;14.38;2.53;;;;;;;14.71;100.00;100918.94;5073590;28;20035;-73
2024/04/08 11:02:46;;;;;;;14.95;3.08;;;;;;;14.70;100.00;100909.97;5074730;28;20042;-72
2024/04/08 11:05:12;;;;;;;14.23;3.10;;;;;;;14.62;100.00;100912.16;5057128;28;20035;-72
2024/04/08 11:07:38;;;;;;;17.13;3.08;;;;;;;14.64;100.00;100910.06;5072937;28;20422;-72